Time;durP1;ratioP1;P1;durP2;ratioP2;P2;SDS_P1;SDS_P2;PMS_P1;PMS_P2;Temp;Humidity;BMP_temperature;BMP_pressure;BME280_temperature;BME280_humidity;BME280_pressure;Samples;Min_cycle;Max_cycle;Signal;HPM_P1;HPM_P2
2023/05/13 00:01:47;;;;;;;19.42;12.20;;;;;;;;;;4990035;28;20050;-60
2023/05/13 00:04:13;;;;;;;17.58;12.18;;;11.90;99.90;;;;;;4975848;28;20041;-59
2023/05/13 00:06:39;;;;;;;14.95;12.73;;;12.20;99.90;;;;;;4973684;28;20046;-59
2023/05/13 00:09:04;;;;;;;19.60;14.05;;;12.10;99.90;;;;;;5036767;22;20038;-57
2023/05/13 00:11:30;;;;;;;15.50;13.43;;;11.90;99.90;;;;;;4998715;28;20045;-57
2023/05/13 00:13:56;;;;;;;14.18;12.20;;;;;;;;;;5012598;28;20111;-56
2023/05/13 00:16:24;;;;;;;17.85;12.70;;;11.80;99.90;;;;;;5004339;28;20049;-58
2023/05/13 00:18:50;;;;;;;19.42;14.15;;;11.80;99.90;;;;;;5002984;28;20042;-56
2023/05/13 00:21:16;;;;;;;15.32;13.00;;;11.70;99.90;;;;;;5020537;28;20041;-56
2023/05/13 00:23:41;;;;;;;15.23;12.85;;;11.60;99.90;;;;;;5010329;28;20483;-56
2023/05/13 00:26:07;;;;;;;15.75;13.25;;;;;;;;;;4838348;22;20329;-56
2023/05/13 00:28:33;;;;;;;19.63;13.77;;;11.60;99.90;;;;;;4989762;28;20041;-62
2023/05/13 00:30:59;;;;;;;17.42;14.30;;;11.90;99.90;;;;;;4998121;28;20046;-59
2023/05/13 00:33:24;;;;;;;16.25;13.23;;;11.50;99.90;;;;;;4991855;28;20519;-57
2023/05/13 00:35:50;;;;;;;15.70;11.98;;;11.60;99.90;;;;;;4980780;28;20728;-57
2023/05/13 00:38:16;;;;;;;17.00;12.90;;;11.30;1.00;;;;;;4974258;28;20125;-58
2023/05/13 00:40:43;;;;;;;18.88;12.63;;;11.50;1.00;;;;;;4982563;28;20146;-58
2023/05/13 00:43:09;;;;;;;17.30;12.48;;;11.50;1.00;;;;;;4970841;28;20042;-57
2023/05/13 00:45:38;;;;;;;14.93;11.75;;;11.60;1.00;;;;;;4972604;28;20038;-57
2023/05/13 00:48:07;;;;;;;15.88;12.73;;;11.60;1.00;;;;;;4960826;28;20034;-58
2023/05/13 00:50:33;;;;;;;18.98;12.38;;;11.40;1.00;;;;;;4978291;28;20049;-58
2023/05/13 00:52:59;;;;;;;14.20;11.60;;;11.60;1.00;;;;;;4960201;28;20472;-58
2023/05/13 00:55:25;;;;;;;12.60;10.90;;;11.60;1.00;;;;;;4967963;28;20049;-58
2023/05/13 00:57:51;;;;;;;14.15;11.10;;;11.80;1.00;;;;;;4974400;28;20042;-58
2023/05/13 01:00:17;;;;;;;18.25;11.95;;;12.00;1.00;;;;;;4976472;28;20035;-58
2023/05/13 01:02:58;;;;;;;15.55;11.32;;;12.00;1.00;;;;;;4975647;28;20046;-59
2023/05/13 01:05:51;;;;;;;20.48;11.65;;;11.30;1.00;;;;;;4975798;28;20050;-59
2023/05/13 01:08:49;;;;;;;13.13;11.10;;;11.80;1.00;;;;;;4970015;28;20069;-58
2023/05/13 01:11:26;;;;;;;17.35;12.38;;;11.30;1.00;;;;;;4952839;28;20043;-59
2023/05/13 01:14:13;;;;;;;14.98;10.93;;;11.60;1.00;;;;;;4983098;28;20428;-57
2023/05/13 01:16:54;;;;;;;13.20;10.32;;;11.50;1.00;;;;;;4975018;28;20082;-59
2023/05/13 01:19:26;;;;;;;15.52;10.82;;;;;;;;;;4977365;28;20042;-58
2023/05/13 01:21:53;;;;;;;14.32;10.75;;;11.50;1.00;;;;;;4979230;28;20049;-59
2023/05/13 01:24:19;;;;;;;14.98;9.95;;;11.50;1.00;;;;;;4977955;28;20508;-57
2023/05/13 01:26:45;;;;;;;15.77;10.02;;;11.20;1.00;;;;;;4981032;28;20063;-58
2023/05/13 01:29:11;;;;;;;16.42;10.38;;;11.50;1.00;;;;;;4974215;28;20046;-58
2023/05/13 01:31:39;;;;;;;12.57;10.20;;;11.50;1.00;;;;;;4979370;28;20050;-59
2023/05/13 01:34:06;;;;;;;12.77;9.38;;;11.90;1.00;;;;;;4980492;28;20034;-58
2023/05/13 01:36:32;;;;;;;14.90;9.68;;;;;;;;;;4990347;28;20046;-58
2023/05/13 01:38:59;;;;;;;14.32;9.65;;;11.60;1.00;;;;;;4968126;28;20074;-57
2023/05/13 01:41:26;;;;;;;15.77;9.77;;;;;;;;;;4978365;28;20034;-59
2023/05/13 01:43:51;;;;;;;14.77;9.93;;;11.80;1.00;;;;;;4977337;28;20045;-58
2023/05/13 01:46:17;;;;;;;13.65;10.13;;;11.50;1.00;;;;;;4980821;28;20038;-58
2023/05/13 01:48:43;;;;;;;13.93;10.43;;;11.50;1.00;;;;;;4983022;28;20502;-57
2023/05/13 01:51:09;;;;;;;14.48;9.57;;;11.60;1.00;;;;;;4985088;28;20046;-56
2023/05/13 01:53:35;;;;;;;12.48;10.43;;;11.40;1.00;;;;;;4980857;28;20050;-55
2023/05/13 01:56:00;;;;;;;13.93;10.38;;;11.60;1.00;;;;;;4977359;28;20109;-57
2023/05/13 01:58:26;;;;;;;12.90;9.95;;;11.60;1.00;;;;;;4978809;28;20030;-58
2023/05/13 02:00:52;;;;;;;14.57;9.70;;;12.00;1.00;;;;;;4982754;28;20466;-56
2023/05/13 02:03:18;;;;;;;13.52;10.55;;;11.80;1.00;;;;;;4979727;28;20456;-56
2023/05/13 02:05:46;;;;;;;14.80;10.60;;;11.50;1.00;;;;;;4979229;28;20105;-57
2023/05/13 02:08:12;;;;;;;14.18;10.77;;;11.40;1.00;;;;;;4978045;28;20038;-57
2023/05/13 02:10:37;;;;;;;14.93;10.68;;;11.40;1.00;;;;;;4982406;28;20065;-57
2023/05/13 02:13:03;;;;;;;13.90;10.10;;;11.60;1.00;;;;;;4978870;28;20088;-58
2023/05/13 02:15:29;;;;;;;14.48;11.57;;;;;;;;;;4973355;28;20050;-59
2023/05/13 02:17:55;;;;;;;17.17;11.25;;;11.50;1.00;;;;;;4977038;28;20152;-59
2023/05/13 02:20:20;;;;;;;18.13;12.75;;;11.60;1.00;;;;;;4977330;28;20104;-59
2023/05/13 02:22:46;;;;;;;18.08;12.63;;;11.20;1.00;;;;;;4971653;28;20070;-58
2023/05/13 02:25:12;;;;;;;14.27;11.07;;;;;;;;;;4975835;28;20297;-58
2023/05/13 02:27:38;;;;;;;14.13;11.45;;;11.20;1.00;;;;;;4972606;28;20118;-59
2023/05/13 02:30:05;;;;;;;15.32;11.45;;;;;;;;;;4974156;28;20804;-58
2023/05/13 02:32:30;;;;;;;17.98;12.45;;;11.30;1.00;;;;;;4969291;28;20050;-60
2023/05/13 02:34:56;;;;;;;16.52;12.15;;;11.30;1.00;;;;;;4978367;28;20041;-59
2023/05/13 02:37:22;;;;;;;16.50;12.77;;;11.00;3.90;;;;;;4977127;28;20108;-58
2023/05/13 02:39:47;;;;;;;17.65;13.05;;;11.30;1.00;;;;;;4973898;28;20031;-58
2023/05/13 02:42:13;;;;;;;19.52;14.82;;;11.50;1.00;;;;;;4974089;28;20053;-58
2023/05/13 02:44:39;;;;;;;18.08;13.98;;;11.20;1.00;;;;;;4979438;28;20080;-58
2023/05/13 02:47:05;;;;;;;16.38;13.35;;;11.10;1.00;;;;;;4978640;28;20050;-57
2023/05/13 02:49:30;;;;;;;17.55;14.60;;;11.20;6.20;;;;;;4975763;28;20053;-56
2023/05/13 02:51:56;;;;;;;18.75;15.25;;;11.20;20.80;;;;;;4975964;28;20042;-57
2023/05/13 02:54:22;;;;;;;17.35;13.70;;;11.10;31.70;;;;;;4977686;28;20046;-58
2023/05/13 02:56:47;;;;;;;19.05;15.75;;;11.10;63.80;;;;;;4960268;28;20473;-58
2023/05/13 02:59:13;;;;;;;18.27;14.02;;;11.30;65.90;;;;;;4967396;28;20042;-58
2023/05/13 03:01:40;;;;;;;17.42;14.65;;;11.10;90.90;;;;;;4977191;28;20046;-58
2023/05/13 03:04:06;;;;;;;19.40;15.65;;;11.40;97.40;;;;;;4977760;28;20053;-58
2023/05/13 03:06:31;;;;;;;18.17;15.52;;;10.70;99.90;;;;;;4977122;28;20101;-59
2023/05/13 03:08:57;;;;;;;17.77;14.60;;;10.70;99.90;;;;;;4975177;28;20042;-57
2023/05/13 03:11:23;;;;;;;19.40;15.20;;;;;;;;;;4977153;28;20057;-58
2023/05/13 03:13:49;;;;;;;17.88;14.60;;;10.80;99.90;;;;;;4976143;28;20057;-58
2023/05/13 03:16:15;;;;;;;20.50;15.77;;;11.20;99.90;;;;;;4977042;28;20050;-59
2023/05/13 03:18:41;;;;;;;18.52;14.07;;;;;;;;;;4968065;28;20070;-57
2023/05/13 03:21:06;;;;;;;20.35;16.30;;;11.30;99.90;;;;;;4970163;28;20042;-58
2023/05/13 03:23:32;;;;;;;20.63;15.98;;;10.90;99.90;;;;;;4975144;28;20084;-57
2023/05/13 03:25:58;;;;;;;21.63;14.88;;;11.00;99.90;;;;;;4976400;28;20045;-59
2023/05/13 03:28:26;;;;;;;21.70;16.63;;;10.50;99.90;;;;;;4976171;28;20537;-58
2023/05/13 03:30:52;;;;;;;24.45;17.38;;;11.00;99.90;;;;;;4975580;28;20419;-58
2023/05/13 03:33:17;;;;;;;20.35;16.33;;;11.00;99.90;;;;;;4968789;28;20049;-59
2023/05/13 03:35:43;;;;;;;23.15;17.42;;;10.70;99.90;;;;;;4967107;28;20570;-58
2023/05/13 03:38:08;;;;;;;23.50;17.45;;;11.10;99.90;;;;;;4955247;28;20069;-58
2023/05/13 03:40:34;;;;;;;24.63;18.75;;;11.00;99.90;;;;;;4969293;28;20042;-59
2023/05/13 03:43:00;;;;;;;22.80;17.92;;;10.50;99.90;;;;;;4974699;28;20038;-58
2023/05/13 03:45:25;;;;;;;28.50;18.73;;;10.70;99.90;;;;;;4968558;28;20038;-58
2023/05/13 03:47:51;;;;;;;25.02;18.38;;;10.50;99.90;;;;;;4974773;28;20034;-59
2023/05/13 03:50:17;;;;;;;19.65;15.80;;;11.00;99.90;;;;;;4974857;28;20042;-59
2023/05/13 03:52:42;;;;;;;24.30;17.52;;;10.80;99.90;;;;;;4975898;28;20046;-58
2023/05/13 03:55:08;;;;;;;24.95;17.45;;;10.90;99.90;;;;;;4976978;28;20038;-57
2023/05/13 03:57:34;;;;;;;22.70;16.15;;;10.90;99.90;;;;;;4974184;28;20050;-58
2023/05/13 04:00:00;;;;;;;24.58;17.38;;;;;;;;;;4976996;28;20856;-58
2023/05/13 04:02:25;;;;;;;19.70;15.95;;;10.90;1.00;;;;;;4975576;28;20046;-58
2023/05/13 04:04:51;;;;;;;24.90;15.45;;;10.40;99.90;;;;;;4976559;28;20400;-58
2023/05/13 04:07:17;;;;;;;22.02;16.95;;;11.00;99.90;;;;;;4976930;28;20042;-58
2023/05/13 04:09:43;;;;;;;19.00;14.30;;;10.90;1.00;;;;;;4975539;28;20567;-57
2023/05/13 04:12:08;;;;;;;16.13;14.10;;;11.00;1.00;;;;;;4971893;28;20049;-58
2023/05/13 04:14:34;;;;;;;17.95;14.55;;;10.60;1.00;;;;;;4969015;28;20504;-58
2023/05/13 04:16:59;;;;;;;20.05;14.05;;;10.60;1.00;;;;;;4975390;28;20042;-58
2023/05/13 04:19:25;;;;;;;20.10;12.73;;;11.00;1.00;;;;;;4966240;28;20039;-59
2023/05/13 04:21:51;;;;;;;15.40;11.93;;;10.90;1.00;;;;;;4974880;28;20030;-59
2023/05/13 04:24:17;;;;;;;15.20;11.35;;;11.10;1.00;;;;;;4979575;28;20718;-58
2023/05/13 04:26:43;;;;;;;14.07;11.20;;;;;;;;;;4973598;28;20042;-58
2023/05/13 04:29:08;;;;;;;18.30;11.70;;;10.90;1.00;;;;;;4971920;28;20081;-59
2023/05/13 04:31:34;;;;;;;18.35;11.88;;;11.00;1.00;;;;;;4955650;28;20857;-58
2023/05/13 04:34:00;;;;;;;16.92;10.95;;;10.90;1.00;;;;;;4975222;28;20165;-59
2023/05/13 04:36:26;;;;;;;14.20;10.05;;;10.90;1.00;;;;;;4955717;28;20050;-59
2023/05/13 04:38:51;;;;;;;13.30;10.30;;;10.80;1.00;;;;;;4974299;28;20115;-58
2023/05/13 04:41:17;;;;;;;14.43;10.43;;;10.70;1.00;;;;;;4972347;28;20062;-59
2023/05/13 04:43:42;;;;;;;12.35;9.10;;;11.00;1.00;;;;;;4967057;28;20034;-59
2023/05/13 04:46:08;;;;;;;14.15;10.27;;;10.90;1.00;;;;;;4978374;28;20042;-58
2023/05/13 04:48:34;;;;;;;12.98;9.10;;;11.10;4.70;;;;;;4977179;28;20057;-59
2023/05/13 04:51:00;;;;;;;13.48;8.65;;;10.80;1.00;;;;;;4979430;28;20049;-57
2023/05/13 04:53:26;;;;;;;13.23;9.00;;;;;;;;;;4972342;28;20035;-56
2023/05/13 04:55:56;;;;;;;11.93;8.30;;;11.30;1.00;;;;;;4978540;28;20046;-58
2023/05/13 04:58:21;;;;;;;13.18;8.18;;;11.00;1.00;;;;;;4974552;28;20945;-58
2023/05/13 05:00:47;;;;;;;12.88;9.10;;;11.10;1.00;;;;;;4984019;28;20141;-59
2023/05/13 05:03:13;;;;;;;12.02;8.15;;;11.10;1.00;;;;;;4979267;28;20038;-57
2023/05/13 05:05:39;;;;;;;11.07;8.02;;;;;;;;;;4976831;28;20686;-58
2023/05/13 05:08:04;;;;;;;10.35;7.30;;;11.20;1.00;;;;;;4978380;28;20109;-58
2023/05/13 05:10:30;;;;;;;11.45;7.80;;;11.20;1.00;;;;;;4971304;28;20456;-56
2023/05/13 05:12:56;;;;;;;12.48;7.82;;;11.00;1.00;;;;;;4977471;28;20030;-56
2023/05/13 05:15:22;;;;;;;10.15;7.20;;;10.90;1.00;;;;;;4979391;28;20038;-57
2023/05/13 05:17:47;;;;;;;14.50;7.70;;;11.30;1.00;;;;;;4975136;28;20047;-58
2023/05/13 05:20:13;;;;;;;10.77;7.00;;;11.60;1.00;;;;;;4961395;28;20162;-56
2023/05/13 05:22:40;;;;;;;14.57;7.47;;;11.50;99.90;;;;;;4976342;28;20061;-58
2023/05/13 05:25:08;;;;;;;13.68;7.30;;;11.40;99.90;;;;;;4970189;28;20070;-58
2023/05/13 05:27:34;;;;;;;11.40;7.32;;;;;;;;;;4977536;28;20065;-57
2023/05/13 05:30:00;;;;;;;9.40;6.65;;;;;;;;;;4978415;28;20034;-58
2023/05/13 05:32:26;;;;;;;12.27;6.60;;;11.90;99.90;;;;;;4986181;28;20050;-58
2023/05/13 05:34:52;;;;;;;10.40;6.38;;;11.70;99.90;;;;;;4979134;28;20144;-58
2023/05/13 05:37:18;;;;;;;10.65;6.80;;;11.60;99.90;;;;;;4981423;28;20038;-58
2023/05/13 05:39:43;;;;;;;11.43;6.15;;;11.70;99.90;;;;;;4977130;28;20042;-57
2023/05/13 05:42:09;;;;;;;9.23;6.65;;;;;;;;;;4972045;28;20842;-56
2023/05/13 05:44:35;;;;;;;9.40;6.35;;;11.60;99.90;;;;;;4980304;28;20096;-57
2023/05/13 05:47:01;;;;;;;11.77;6.55;;;11.60;99.90;;;;;;4980148;28;20042;-57
2023/05/13 05:49:26;;;;;;;11.73;6.95;;;11.80;99.90;;;;;;4974028;28;20046;-57
2023/05/13 05:51:52;;;;;;;10.77;7.05;;;12.10;99.90;;;;;;4975283;28;20073;-57
2023/05/13 05:54:17;;;;;;;9.60;6.20;;;12.30;99.90;;;;;;4978786;28;20120;-58
2023/05/13 05:56:43;;;;;;;9.95;6.38;;;12.20;99.90;;;;;;4976779;28;20550;-57
2023/05/13 05:59:09;;;;;;;10.25;6.53;;;12.30;99.90;;;;;;4974036;28;20046;-57
2023/05/13 06:01:35;;;;;;;9.93;6.55;;;12.10;99.90;;;;;;4978038;28;20148;-58
2023/05/13 06:04:02;;;;;;;9.32;6.35;;;12.50;99.90;;;;;;4978101;28;20539;-56
2023/05/13 06:06:28;;;;;;;10.18;6.35;;;12.00;99.90;;;;;;4978879;28;20053;-58
2023/05/13 06:08:53;;;;;;;9.50;6.55;;;12.40;99.90;;;;;;4974994;28;20042;-56
2023/05/13 06:11:19;;;;;;;11.40;6.30;;;12.20;99.90;;;;;;4978254;28;20046;-58
2023/05/13 06:13:45;;;;;;;10.98;7.53;;;12.40;99.90;;;;;;4970621;28;20687;-58
2023/05/13 06:16:11;;;;;;;10.70;6.93;;;12.40;99.90;;;;;;4978452;28;20057;-58
2023/05/13 06:18:36;;;;;;;10.65;6.45;;;12.40;99.90;;;;;;4977040;28;20133;-58
2023/05/13 06:21:02;;;;;;;9.63;6.35;;;12.10;99.90;;;;;;4976750;28;20038;-57
2023/05/13 06:23:28;;;;;;;11.35;6.38;;;12.10;99.90;;;;;;4973789;28;20046;-58
2023/05/13 06:25:54;;;;;;;12.88;6.30;;;12.20;99.90;;;;;;4977616;28;20801;-57
2023/05/13 06:28:19;;;;;;;13.40;6.55;;;12.30;99.90;;;;;;4974243;28;20382;-58
2023/05/13 06:30:45;;;;;;;10.40;6.38;;;12.60;99.90;;;;;;4975413;28;20078;-57
2023/05/13 06:33:11;;;;;;;11.98;6.78;;;12.50;99.90;;;;;;4977796;28;20042;-58
2023/05/13 06:35:38;;;;;;;11.02;6.45;;;12.30;99.90;;;;;;4977733;28;20815;-57
2023/05/13 06:38:04;;;;;;;9.75;6.55;;;12.70;99.90;;;;;;4976966;28;20136;-58
2023/05/13 06:40:29;;;;;;;9.43;5.97;;;12.70;99.90;;;;;;4978538;28;20483;-58
2023/05/13 06:42:55;;;;;;;10.48;5.90;;;12.50;99.90;;;;;;4971542;28;20121;-57
2023/05/13 06:45:22;;;;;;;9.20;6.38;;;12.30;99.90;;;;;;4974639;28;20064;-58
2023/05/13 06:47:52;;;;;;;11.82;6.50;;;12.80;99.90;;;;;;4974874;28;20956;-58
2023/05/13 06:50:18;;;;;;;12.43;7.50;;;12.90;99.90;;;;;;4977488;28;20053;-58
2023/05/13 06:52:44;;;;;;;11.52;6.65;;;12.90;99.90;;;;;;4977252;28;20416;-58
2023/05/13 06:55:10;;;;;;;9.45;5.90;;;12.80;99.90;;;;;;4977658;28;20053;-58
2023/05/13 06:57:36;;;;;;;9.68;5.88;;;12.90;99.90;;;;;;4973447;28;20046;-58
2023/05/13 07:00:02;;;;;;;10.95;5.97;;;13.00;99.90;;;;;;4976999;28;20639;-58
2023/05/13 07:02:28;;;;;;;10.75;6.43;;;13.00;99.90;;;;;;4976284;28;20053;-58
2023/05/13 07:04:53;;;;;;;9.52;5.88;;;13.20;64.40;;;;;;4977290;28;20042;-58
2023/05/13 07:07:19;;;;;;;10.18;6.57;;;13.40;29.10;;;;;;4977224;28;20045;-58
2023/05/13 07:09:45;;;;;;;14.32;6.13;;;13.50;1.00;;;;;;4975721;28;20774;-57
2023/05/13 07:12:10;;;;;;;10.23;5.93;;;13.50;1.00;;;;;;4977375;28;20504;-58
2023/05/13 07:14:36;;;;;;;12.48;6.05;;;13.20;1.00;;;;;;4977643;28;20691;-57
2023/05/13 07:17:03;;;;;;;9.80;6.47;;;13.40;1.00;;;;;;4974535;28;20397;-58
2023/05/13 07:19:29;;;;;;;10.48;6.78;;;13.60;1.00;;;;;;4971531;28;20038;-58
2023/05/13 07:21:55;;;;;;;9.50;6.10;;;13.30;1.00;;;;;;4976590;28;20829;-58
2023/05/13 07:24:21;;;;;;;10.77;5.90;;;13.70;1.00;;;;;;4974144;28;20050;-59
2023/05/13 07:26:46;;;;;;;9.73;5.97;;;13.60;1.00;;;;;;4976510;28;20496;-58
2023/05/13 07:29:12;;;;;;;9.45;6.30;;;14.00;1.00;;;;;;4977778;28;20134;-58
2023/05/13 07:31:38;;;;;;;11.95;6.03;;;13.70;1.00;;;;;;4976834;28;20048;-59
2023/05/13 07:34:04;;;;;;;10.90;5.97;;;13.70;99.90;;;;;;4977692;28;20042;-59
2023/05/13 07:36:30;;;;;;;9.48;6.43;;;13.70;99.90;;;;;;4977709;28;20137;-58
2023/05/13 07:38:56;;;;;;;10.50;6.68;;;13.40;1.00;;;;;;4963450;28;20038;-57
2023/05/13 07:41:21;;;;;;;12.52;7.13;;;13.80;1.00;;;;;;4977428;28;20042;-57
2023/05/13 07:43:47;;;;;;;12.05;6.50;;;13.80;1.00;;;;;;4976860;28;20038;-57
2023/05/13 07:46:13;;;;;;;12.88;7.43;;;13.80;1.00;;;;;;4968820;28;20052;-59
2023/05/13 07:48:38;;;;;;;14.68;7.10;;;14.30;1.00;;;;;;4970213;28;20805;-59
2023/05/13 07:51:04;;;;;;;12.23;6.88;;;14.00;1.00;;;;;;4968426;28;20543;-59
2023/05/13 07:53:30;;;;;;;12.70;6.97;;;14.00;1.00;;;;;;4971013;28;20468;-58
2023/05/13 07:55:55;;;;;;;14.25;7.20;;;14.40;1.00;;;;;;4971623;28;20042;-57
2023/05/13 07:58:21;;;;;;;10.63;7.07;;;14.30;1.00;;;;;;4968779;28;20069;-57
2023/05/13 08:00:48;;;;;;;11.50;7.00;;;14.40;1.00;;;;;;4965941;28;20120;-58
2023/05/13 08:03:15;;;;;;;11.93;6.63;;;14.10;1.00;;;;;;4973449;28;20073;-59
2023/05/13 08:05:41;;;;;;;9.35;7.05;;;14.40;1.00;;;;;;4968856;28;20049;-59
2023/05/13 08:08:06;;;;;;;11.38;7.43;;;14.20;1.00;;;;;;4973292;28;20038;-59
2023/05/13 08:10:32;;;;;;;10.85;6.78;;;14.80;1.00;;;;;;4974161;28;20066;-59
2023/05/13 08:12:59;;;;;;;9.75;6.43;;;14.50;1.00;;;;;;4968132;28;20501;-58
2023/05/13 08:15:26;;;;;;;13.43;6.95;;;14.30;99.90;;;;;;4965731;28;20072;-58
2023/05/13 08:17:52;;;;;;;9.98;6.53;;;14.70;99.90;;;;;;4971515;28;20117;-58
2023/05/13 08:20:19;;;;;;;9.15;5.63;;;14.40;99.90;;;;;;4971467;28;20474;-59
2023/05/13 08:22:45;;;;;;;11.25;6.68;;;14.70;99.90;;;;;;4963242;28;20416;-58
2023/05/13 08:25:11;;;;;;;12.10;7.25;;;;;;;;;;4973723;28;20282;-58
2023/05/13 08:27:37;;;;;;;9.32;6.63;;;15.00;99.90;;;;;;4967612;28;20375;-58
2023/05/13 08:30:04;;;;;;;10.05;6.15;;;14.50;99.90;;;;;;4972634;28;20042;-57
2023/05/13 08:32:29;;;;;;;10.57;7.40;;;14.80;99.90;;;;;;4967916;28;20054;-58
2023/05/13 08:34:55;;;;;;;10.02;6.90;;;14.70;99.90;;;;;;4971871;28;20043;-59
2023/05/13 08:37:21;;;;;;;12.45;6.35;;;14.70;99.90;;;;;;4972160;28;20472;-59
2023/05/13 08:39:46;;;;;;;10.07;6.25;;;15.00;99.90;;;;;;4974250;28;20101;-58
2023/05/13 08:42:17;;;;;;;13.82;7.38;;;15.00;99.90;;;;;;4972228;28;20326;-55
2023/05/13 08:44:43;;;;;;;9.30;6.82;;;15.10;99.90;;;;;;4973009;28;20441;-59
2023/05/13 08:47:22;;;;;;;10.77;7.05;;;15.10;99.90;;;;;;4975540;28;20423;-58
2023/05/13 08:49:49;;;;;;;10.70;6.70;;;15.00;99.90;;;;;;4970957;28;20412;-58
2023/05/13 08:52:15;;;;;;;10.70;6.72;;;15.40;99.90;;;;;;4966923;28;20046;-58
2023/05/13 08:54:42;;;;;;;11.40;7.15;;;14.90;99.90;;;;;;4966400;28;20221;-59
2023/05/13 08:57:08;;;;;;;9.35;6.60;;;15.50;99.90;;;;;;4971112;28;20548;-58
2023/05/13 08:59:34;;;;;;;10.90;7.60;;;15.30;99.90;;;;;;4962738;28;20153;-58
2023/05/13 09:02:02;;;;;;;11.05;7.38;;;15.20;99.90;;;;;;4969415;28;20058;-59
2023/05/13 09:04:28;;;;;;;10.45;6.95;;;15.20;99.90;;;;;;4964857;28;20038;-58
2023/05/13 09:06:54;;;;;;;10.30;7.13;;;15.30;99.90;;;;;;4970014;28;20050;-59
2023/05/13 09:09:20;;;;;;;9.80;6.15;;;15.10;99.90;;;;;;4974923;28;20042;-58
2023/05/13 09:11:49;;;;;;;11.18;6.22;;;15.00;99.90;;;;;;4972854;28;20465;-59
2023/05/13 09:14:18;;;;;;;12.63;7.38;;;15.50;99.90;;;;;;4976124;28;20042;-58
2023/05/13 09:16:44;;;;;;;9.88;6.78;;;15.50;99.90;;;;;;4971611;28;20046;-57
2023/05/13 09:19:11;;;;;;;9.63;6.10;;;;;;;;;;4966450;28;20101;-58
2023/05/13 09:21:36;;;;;;;10.55;5.85;;;15.70;99.90;;;;;;4974391;28;20102;-59
2023/05/13 09:24:10;;;;;;;8.57;6.10;;;15.40;99.90;;;;;;4975918;28;20551;-58
2023/05/13 09:26:37;;;;;;;12.10;6.45;;;15.60;99.90;;;;;;4975864;28;20046;-58
2023/05/13 09:29:21;;;;;;;10.43;6.88;;;15.50;99.20;;;;;;4972136;28;20042;-59
2023/05/13 09:31:49;;;;;;;10.27;6.78;;;15.60;99.90;;;;;;4972824;28;20074;-58
2023/05/13 09:34:34;;;;;;;10.73;6.68;;;16.00;99.90;;;;;;4978669;28;20045;-59
2023/05/13 09:37:05;;;;;;;12.30;6.22;;;16.00;99.60;;;;;;4979646;28;20050;-59
2023/05/13 09:39:39;;;;;;;10.25;6.88;;;15.80;99.40;;;;;;4979308;28;20494;-59
2023/05/13 09:42:17;;;;;;;10.00;6.30;;;15.90;99.90;;;;;;4979184;28;20082;-59
2023/05/13 09:44:44;;;;;;;10.98;8.18;;;16.20;88.60;;;;;;4979943;28;20035;-59
2023/05/13 09:47:12;;;;;;;11.05;6.75;;;15.90;95.80;;;;;;4979470;28;20512;-59
2023/05/13 09:49:39;;;;;;;11.50;7.57;;;16.30;91.00;;;;;;4978237;28;20294;-58
2023/05/13 09:52:08;;;;;;;10.63;6.93;;;16.10;91.30;;;;;;4977913;28;20046;-58
2023/05/13 09:54:35;;;;;;;14.82;6.30;;;16.40;64.30;;;;;;4978814;28;20161;-59
2023/05/13 09:57:01;;;;;;;10.10;5.43;;;16.40;43.40;;;;;;4975598;28;20137;-59
2023/05/13 09:59:31;;;;;;;11.32;6.22;;;16.50;14.10;;;;;;4978793;28;20034;-58
2023/05/13 10:02:03;;;;;;;9.77;5.80;;;16.20;1.00;;;;;;4976168;28;20069;-59
2023/05/13 10:04:29;;;;;;;11.65;7.32;;;16.50;1.00;;;;;;4976970;28;20072;-59
2023/05/13 10:06:57;;;;;;;9.82;5.30;;;16.60;1.00;;;;;;4979219;28;20046;-58
2023/05/13 10:09:27;;;;;;;13.38;5.68;;;16.90;1.00;;;;;;4978226;28;20108;-59
2023/05/13 10:11:54;;;;;;;13.25;6.47;;;16.80;1.00;;;;;;4977590;28;20050;-58
2023/05/13 10:14:20;;;;;;;10.35;5.95;;;16.90;1.00;;;;;;4972017;28;20062;-58
2023/05/13 10:16:47;;;;;;;11.23;6.53;;;17.10;1.00;;;;;;4979039;28;20046;-59
2023/05/13 10:19:13;;;;;;;11.20;6.53;;;17.20;1.00;;;;;;4976804;28;20153;-59
2023/05/13 10:21:40;;;;;;;9.85;6.57;;;16.80;1.00;;;;;;4971401;28;20047;-60
2023/05/13 10:24:07;;;;;;;10.57;6.25;;;17.20;1.00;;;;;;4969541;28;20054;-59
2023/05/13 10:26:33;;;;;;;10.93;6.03;;;16.80;1.00;;;;;;4965155;28;20051;-59
2023/05/13 10:29:00;;;;;;;9.98;6.30;;;16.80;1.00;;;;;;4966313;28;20507;-59
2023/05/13 10:31:28;;;;;;;14.90;7.43;;;17.20;1.00;;;;;;4970377;28;20144;-59
2023/05/13 10:33:54;;;;;;;11.93;6.43;;;17.00;1.00;;;;;;4973750;28;20109;-58
2023/05/13 10:36:31;;;;;;;12.20;7.35;;;17.40;1.00;;;;;;4978758;28;20042;-58
2023/05/13 10:39:11;;;;;;;13.98;7.60;;;17.10;1.00;;;;;;4975511;28;20412;-58
2023/05/13 10:41:55;;;;;;;12.25;7.25;;;17.50;99.90;;;;;;4960987;28;20046;-58
2023/05/13 10:44:23;;;;;;;9.48;6.18;;;17.00;1.00;;;;;;4978039;28;20405;-58
2023/05/13 10:46:49;;;;;;;13.63;7.25;;;17.00;1.00;;;;;;4976038;28;20278;-57
2023/05/13 10:49:15;;;;;;;11.27;6.97;;;17.50;99.90;;;;;;4975744;28;20121;-59
2023/05/13 10:51:50;;;;;;;13.23;7.65;;;17.90;99.90;;;;;;4975675;28;20046;-59
2023/05/13 10:54:20;;;;;;;11.07;7.95;;;17.30;99.90;;;;;;4977533;28;20046;-59
2023/05/13 10:56:57;;;;;;;10.75;7.00;;;17.50;99.90;;;;;;4974537;28;20042;-58
2023/05/13 10:59:23;;;;;;;9.25;7.40;;;17.60;99.90;;;;;;4971069;28;20189;-59
2023/05/13 11:01:49;;;;;;;9.70;6.18;;;17.10;99.90;;;;;;4972689;28;20050;-59
2023/05/13 11:04:17;;;;;;;12.07;7.47;;;17.70;99.90;;;;;;4974447;28;20056;-59
2023/05/13 11:06:45;;;;;;;11.52;8.18;;;17.70;99.90;;;;;;4972617;28;20045;-59
2023/05/13 11:09:13;;;;;;;12.82;8.30;;;17.70;99.90;;;;;;4977396;28;20475;-58
2023/05/13 11:11:43;;;;;;;20.70;8.15;;;17.80;99.90;;;;;;4977663;28;20046;-59
2023/05/13 11:14:16;;;;;;;12.35;8.13;;;17.60;99.90;;;;;;4976402;28;20048;-58
2023/05/13 11:17:17;;;;;;;12.75;9.18;;;18.10;99.90;;;;;;4975619;28;20586;-59
2023/05/13 11:19:49;;;;;;;13.00;8.60;;;17.90;99.90;;;;;;4955490;28;20327;-60
2023/05/13 11:22:20;;;;;;;11.30;6.55;;;17.80;99.90;;;;;;4977477;28;20124;-59
2023/05/13 11:25:08;;;;;;;11.73;8.60;;;17.90;99.90;;;;;;4975450;28;20045;-59
2023/05/13 11:27:39;;;;;;;9.77;7.57;;;17.80;99.90;;;;;;4971565;28;20290;-59
2023/05/13 11:30:20;;;;;;;11.32;7.43;;;17.80;99.90;;;;;;4976037;28;20129;-59
2023/05/13 11:32:57;;;;;;;13.77;9.50;;;18.30;99.90;;;;;;4975947;28;20038;-59
2023/05/13 11:35:30;;;;;;;11.00;8.20;;;18.30;99.90;;;;;;4956888;28;20039;-60
2023/05/13 11:38:00;;;;;;;13.48;8.90;;;18.70;99.90;;;;;;4974191;28;20093;-60
2023/05/13 11:40:34;;;;;;;13.05;8.77;;;18.60;99.90;;;;;;4978215;28;20053;-60
2023/05/13 11:43:00;;;;;;;;;;;18.20;99.90;;;;;;4965465;28;20054;-60
2023/05/13 11:45:30;;;;;;;10.93;8.15;;;18.50;99.90;;;;;;4977411;28;20314;-59
2023/05/13 11:47:56;;;;;;;12.65;7.30;;;18.60;99.90;;;;;;4976398;28;20046;-59
2023/05/13 11:50:28;;;;;;;12.85;7.72;;;18.60;99.90;;;;;;4977095;28;20042;-58
2023/05/13 11:52:59;;;;;;;11.98;7.53;;;18.70;99.90;;;;;;4967691;28;20060;-59
2023/05/13 11:55:32;;;;;;;14.25;7.65;;;18.90;99.90;;;;;;4973544;28;20453;-59
2023/05/13 11:57:59;;;;;;;11.07;7.05;;;19.20;99.90;;;;;;4975649;28;20047;-59
2023/05/13 12:00:26;;;;;;;12.10;7.15;;;;;;;;;;4975232;28;20038;-59
2023/05/13 12:02:57;;;;;;;11.82;6.65;;;19.40;99.90;;;;;;4968503;28;20050;-59
2023/05/13 12:05:27;;;;;;;9.50;6.80;;;19.70;99.90;;;;;;4969457;28;20042;-59
2023/05/13 12:07:56;;;;;;;9.93;6.75;;;19.90;99.90;;;;;;4971486;28;20130;-60
2023/05/13 12:10:23;;;;;;;13.38;7.53;;;19.90;99.90;;;;;;4975497;28;20038;-60
2023/05/13 12:12:49;;;;;;;12.20;6.82;;;20.10;99.90;;;;;;4974224;28;20050;-59
2023/05/13 12:15:17;;;;;;;11.88;7.30;;;19.80;99.90;;;;;;4975936;28;20049;-60
2023/05/13 12:17:44;;;;;;;9.95;6.32;;;20.50;99.90;;;;;;4975165;28;20073;-58
2023/05/13 12:20:15;;;;;;;9.50;6.28;;;21.20;99.90;;;;;;4976239;28;20038;-60
2023/05/13 12:22:44;;;;;;;12.18;6.15;;;20.50;99.90;;;;;;4966361;28;20050;-60
2023/05/13 12:25:35;;;;;;;9.45;6.35;;;22.10;99.90;;;;;;4974895;28;20323;-58
2023/05/13 12:28:12;;;;;;;8.77;5.63;;;21.90;99.90;;;;;;4975485;28;20050;-59
2023/05/13 12:30:40;;;;;;;9.32;5.13;;;24.10;99.90;;;;;;4964966;28;20074;-58
2023/05/13 12:33:12;;;;;;;9.13;5.78;;;26.90;99.90;;;;;;4973725;28;20325;-60
2023/05/13 12:35:37;;;;;;;7.93;4.90;;;28.90;99.90;;;;;;4969875;28;20046;-60
2023/05/13 12:38:04;;;;;;;8.35;5.18;;;31.30;99.90;;;;;;4970930;28;20523;-60
2023/05/13 12:40:30;;;;;;;8.82;5.20;;;33.10;99.90;;;;;;4976715;28;20046;-60
2023/05/13 12:42:57;;;;;;;9.80;5.00;;;34.70;99.90;;;;;;4975823;28;20050;-61
2023/05/13 12:45:30;;;;;;;7.07;3.90;;;36.80;86.80;;;;;;4972777;28;20038;-60
2023/05/13 12:47:57;;;;;;;6.90;4.07;;;37.70;26.90;;;;;;4975424;28;20046;-61